createdAt,value
2022-12-31T00:01:27.094Z,88.07
2022-12-31T00:03:57.188Z,82.25
2022-12-31T00:06:33.180Z,81.40
2022-12-31T00:09:01.664Z,78.93
2022-12-31T00:11:29.883Z,77.37
2022-12-31T00:13:57.703Z,70.38
2022-12-31T00:16:25.994Z,68.60
2022-12-31T00:18:55.272Z,72.25
2022-12-31T00:21:22.879Z,73.30
2022-12-31T00:23:49.830Z,69.57
2022-12-31T00:26:22.625Z,74.38
2022-12-31T00:28:49.515Z,69.72
2022-12-31T00:31:19.357Z,69.60
2022-12-31T00:33:46.786Z,64.65
2022-12-31T00:36:16.440Z,68.88
2022-12-31T00:38:45.556Z,57.30
2022-12-31T00:41:13.908Z,57.65
2022-12-31T00:43:41.104Z,63.72
2022-12-31T00:46:09.428Z,64.35
2022-12-31T00:48:36.639Z,67.45
2022-12-31T00:51:05.937Z,72.80
2022-12-31T00:53:33.442Z,80.75
2022-12-31T00:56:06.931Z,78.35
2022-12-31T00:58:35.546Z,82.25
2022-12-31T01:01:16.464Z,81.00
2022-12-31T01:03:43.858Z,86.50
2022-12-31T01:06:11.161Z,90.47
2022-12-31T01:08:38.289Z,90.35
2022-12-31T01:11:22.448Z,91.85
2022-12-31T01:14:17.124Z,92.57
2022-12-31T01:16:47.678Z,96.22
2022-12-31T01:19:29.303Z,89.82
2022-12-31T01:21:57.246Z,100.85
2022-12-31T01:24:24.894Z,102.80
2022-12-31T01:26:52.021Z,100.03
2022-12-31T01:29:19.098Z,93.47
2022-12-31T01:31:46.058Z,93.07
2022-12-31T01:34:12.995Z,89.40
2022-12-31T01:36:40.188Z,101.35
2022-12-31T01:39:08.868Z,89.75
2022-12-31T01:41:39.298Z,95.85
2022-12-31T01:44:12.405Z,93.80
2022-12-31T01:46:47.352Z,86.38
2022-12-31T01:49:23.818Z,90.80
2022-12-31T01:52:05.196Z,89.32
2022-12-31T01:54:35.441Z,82.65
2022-12-31T01:57:03.712Z,84.30
2022-12-31T01:59:31.715Z,82.97
2022-12-31T02:01:59.993Z,77.40
2022-12-31T02:04:28.431Z,90.13
2022-12-31T02:07:00.126Z,79.18
2022-12-31T02:09:27.149Z,80.13
2022-12-31T02:11:54.116Z,79.18
2022-12-31T02:14:25.871Z,69.88
2022-12-31T02:17:08.435Z,69.90
2022-12-31T02:19:57.001Z,69.95
2022-12-31T02:22:42.715Z,64.82
2022-12-31T02:25:12.778Z,64.32
2022-12-31T02:27:42.616Z,69.88
2022-12-31T02:30:21.147Z,59.08
2022-12-31T02:33:02.641Z,61.28
2022-12-31T02:35:49.635Z,68.07
2022-12-31T02:38:39.327Z,68.07
2022-12-31T02:41:11.524Z,65.35
2022-12-31T02:43:46.799Z,69.07
2022-12-31T02:46:29.801Z,66.18
2022-12-31T02:49:10.974Z,64.35
2022-12-31T02:52:06.149Z,71.13
2022-12-31T02:54:51.526Z,70.32
2022-12-31T02:57:51.763Z,62.25
2022-12-31T03:00:37.688Z,64.85
2022-12-31T03:03:06.950Z,61.00
2022-12-31T03:05:39.447Z,65.07
2022-12-31T03:08:06.425Z,68.72
2022-12-31T03:10:33.515Z,64.35
2022-12-31T03:13:00.746Z,64.47
2022-12-31T03:15:30.809Z,64.88
2022-12-31T03:17:57.769Z,68.57
2022-12-31T03:20:48.454Z,63.10
2022-12-31T03:23:19.773Z,65.35
2022-12-31T03:25:47.174Z,65.28
2022-12-31T03:28:17.476Z,59.63
2022-12-31T03:30:48.101Z,63.55
2022-12-31T03:33:15.466Z,58.55
2022-12-31T03:35:44.292Z,63.05
2022-12-31T03:38:29.617Z,58.30
2022-12-31T03:40:56.624Z,62.63
2022-12-31T03:43:23.518Z,56.88
2022-12-31T03:45:53.167Z,56.90
2022-12-31T03:48:22.796Z,58.38
2022-12-31T03:50:50.662Z,64.57
2022-12-31T03:53:18.030Z,67.15
2022-12-31T03:55:45.054Z,65.25
2022-12-31T03:58:12.014Z,69.40
2022-12-31T04:00:39.211Z,66.65
2022-12-31T04:03:06.471Z,64.05
2022-12-31T04:05:33.798Z,74.45
2022-12-31T04:08:00.799Z,73.72
2022-12-31T04:10:27.837Z,67.32
2022-12-31T04:12:54.734Z,68.63
2022-12-31T04:15:21.945Z,72.55
2022-12-31T04:17:49.116Z,70.32
2022-12-31T04:20:16.837Z,73.80
2022-12-31T04:22:44.327Z,71.50
2022-12-31T04:25:11.799Z,74.22
2022-12-31T04:27:40.778Z,74.53
2022-12-31T04:30:09.899Z,71.82
2022-12-31T04:32:36.810Z,75.85
2022-12-31T04:35:04.157Z,77.85
2022-12-31T04:37:31.032Z,74.30
2022-12-31T04:40:03.551Z,77.85
2022-12-31T04:42:32.667Z,76.07
2022-12-31T04:44:59.495Z,68.25
2022-12-31T04:47:26.492Z,78.53
2022-12-31T04:49:53.423Z,73.25
2022-12-31T04:52:20.515Z,76.65
2022-12-31T04:54:47.412Z,71.07
2022-12-31T04:57:14.445Z,77.38
2022-12-31T04:59:41.335Z,72.88
2022-12-31T05:02:08.556Z,80.53
2022-12-31T05:04:35.633Z,76.60
2022-12-31T05:07:02.639Z,75.50
2022-12-31T05:09:29.851Z,78.70
2022-12-31T05:11:56.892Z,77.78
2022-12-31T05:14:23.723Z,78.68
2022-12-31T05:16:50.780Z,72.65
2022-12-31T05:19:17.687Z,74.85
2022-12-31T05:22:04.939Z,74.60
2022-12-31T05:24:31.870Z,74.68
2022-12-31T05:26:58.793Z,67.50
2022-12-31T05:29:26.251Z,75.22
2022-12-31T05:31:53.439Z,80.20
2022-12-31T05:34:20.749Z,78.00
2022-12-31T05:36:47.571Z,73.97
2022-12-31T05:39:14.559Z,76.55
2022-12-31T05:41:41.459Z,75.22
2022-12-31T05:44:08.328Z,78.60
2022-12-31T05:46:35.304Z,77.10
2022-12-31T05:49:02.224Z,74.55
2022-12-31T05:51:29.282Z,74.90
2022-12-31T05:53:56.110Z,74.97
2022-12-31T05:56:23.177Z,74.53
2022-12-31T05:58:50.049Z,70.43
2022-12-31T06:01:17.272Z,75.03
2022-12-31T06:03:44.617Z,69.13
2022-12-31T06:06:11.671Z,70.50
2022-12-31T06:08:38.603Z,70.30
2022-12-31T06:11:06.771Z,75.32
2022-12-31T06:13:33.682Z,73.55
2022-12-31T06:16:08.609Z,72.35
2022-12-31T06:18:35.755Z,70.78
2022-12-31T06:21:04.150Z,68.65
2022-12-31T06:23:31.658Z,74.50
2022-12-31T06:26:05.292Z,71.35
2022-12-31T06:28:32.587Z,75.45
2022-12-31T06:31:01.430Z,70.03
2022-12-31T06:33:29.207Z,83.43
2022-12-31T06:35:57.984Z,73.88
2022-12-31T06:38:26.227Z,76.00
2022-12-31T06:40:53.293Z,73.10
2022-12-31T06:43:21.084Z,67.28
2022-12-31T06:45:48.185Z,66.93
2022-12-31T06:48:16.411Z,61.10
2022-12-31T06:50:43.331Z,66.00
2022-12-31T06:53:12.083Z,61.70
2022-12-31T06:55:39.129Z,63.28
2022-12-31T06:58:06.591Z,62.55
2022-12-31T07:00:33.861Z,62.63
2022-12-31T07:03:16.097Z,59.33
2022-12-31T07:05:52.464Z,63.80
2022-12-31T07:08:19.479Z,59.58
2022-12-31T07:10:54.782Z,62.55
2022-12-31T07:13:33.870Z,58.80
2022-12-31T07:16:06.966Z,58.97
2022-12-31T07:19:07.967Z,56.15
2022-12-31T07:21:38.008Z,59.58
2022-12-31T07:24:09.837Z,54.78
2022-12-31T07:26:51.147Z,59.83
2022-12-31T07:29:56.694Z,70.03
2022-12-31T07:33:08.157Z,60.13
2022-12-31T07:35:56.637Z,61.67
2022-12-31T07:38:32.746Z,71.88
2022-12-31T07:41:24.473Z,73.47
2022-12-31T07:44:11.718Z,65.43
2022-12-31T07:46:48.698Z,63.13
2022-12-31T07:49:16.062Z,63.75
2022-12-31T07:51:43.201Z,68.93
2022-12-31T07:54:14.234Z,67.60
2022-12-31T07:56:43.043Z,70.45
2022-12-31T07:59:37.935Z,70.60
2022-12-31T08:02:04.883Z,67.70
2022-12-31T08:04:52.470Z,72.93
2022-12-31T08:07:26.810Z,64.63
2022-12-31T08:10:17.963Z,68.28
2022-12-31T08:12:49.545Z,68.95
2022-12-31T08:15:19.229Z,71.07
2022-12-31T08:17:46.355Z,76.75
2022-12-31T08:20:19.401Z,71.00
2022-12-31T08:23:11.969Z,73.03
2022-12-31T08:26:06.372Z,67.68
2022-12-31T08:29:02.709Z,74.47
2022-12-31T08:31:55.749Z,74.55
2022-12-31T08:34:49.797Z,72.80
2022-12-31T08:37:37.002Z,69.40
2022-12-31T08:40:36.416Z,71.10
2022-12-31T08:43:19.984Z,68.85
2022-12-31T08:45:49.909Z,80.47
2022-12-31T08:48:31.078Z,67.55
2022-12-31T08:50:58.477Z,64.43
2022-12-31T08:53:25.989Z,51.85
2022-12-31T08:56:01.672Z,59.92
2022-12-31T08:58:59.720Z,51.28
2022-12-31T09:01:33.974Z,55.22
2022-12-31T09:04:19.575Z,54.67
2022-12-31T09:07:02.287Z,50.35
2022-12-31T09:09:50.359Z,50.72
2022-12-31T09:12:35.712Z,38.80
2022-12-31T09:15:14.948Z,43.13
2022-12-31T09:17:46.432Z,37.13
2022-12-31T09:20:20.773Z,38.55
2022-12-31T09:22:48.583Z,39.60
2022-12-31T09:25:18.106Z,43.03
2022-12-31T09:28:08.611Z,45.78
2022-12-31T09:30:50.779Z,48.08
2022-12-31T09:33:48.804Z,44.10
2022-12-31T09:36:32.180Z,48.70
2022-12-31T09:39:14.899Z,51.13
2022-12-31T09:42:01.765Z,54.75
2022-12-31T09:44:28.860Z,54.63
2022-12-31T09:47:17.532Z,48.55
2022-12-31T09:50:33.510Z,60.97
2022-12-31T09:53:19.178Z,55.38
2022-12-31T09:55:56.364Z,57.97
2022-12-31T09:59:04.588Z,62.22
2022-12-31T10:05:03.146Z,56.45
2022-12-31T10:07:54.374Z,56.10
2022-12-31T10:10:56.064Z,61.72
2022-12-31T10:13:45.989Z,57.35
2022-12-31T10:16:31.350Z,60.13
2022-12-31T10:19:24.541Z,58.05
2022-12-31T10:22:06.691Z,56.30
2022-12-31T10:24:50.715Z,53.63
2022-12-31T10:27:38.217Z,50.40
2022-12-31T10:30:19.057Z,57.47
2022-12-31T10:33:15.909Z,54.90
2022-12-31T10:35:45.925Z,50.22
2022-12-31T10:38:18.979Z,49.38
2022-12-31T10:41:23.148Z,46.38
2022-12-31T10:44:22.978Z,43.53
2022-12-31T10:46:58.883Z,34.65
2022-12-31T10:49:41.375Z,36.75
2022-12-31T10:52:38.184Z,33.72
2022-12-31T10:55:26.881Z,34.22
2022-12-31T10:58:27.777Z,35.30
2022-12-31T11:01:39.488Z,30.30
2022-12-31T11:04:18.917Z,35.05
2022-12-31T11:07:11.581Z,39.05
2022-12-31T11:09:41.473Z,35.40
2022-12-31T11:12:11.604Z,34.10
2022-12-31T11:14:38.608Z,31.77
2022-12-31T11:17:49.164Z,34.85
2022-12-31T11:20:25.017Z,33.97
2022-12-31T11:22:52.018Z,33.67
2022-12-31T11:26:14.628Z,37.50
2022-12-31T11:28:48.976Z,33.78
2022-12-31T11:31:48.797Z,36.90
2022-12-31T11:34:37.624Z,46.80
2022-12-31T11:37:29.302Z,34.15
2022-12-31T11:40:29.955Z,37.40
2022-12-31T11:43:10.940Z,38.08
2022-12-31T11:45:59.558Z,36.92
2022-12-31T11:48:36.947Z,40.22
2022-12-31T11:51:16.092Z,41.20
2022-12-31T11:54:04.163Z,69.38
2022-12-31T11:56:57.333Z,52.83
2022-12-31T11:59:24.615Z,40.88
2022-12-31T12:02:27.929Z,39.85
2022-12-31T12:05:02.677Z,43.22
2022-12-31T12:07:35.573Z,44.80
2022-12-31T12:10:07.420Z,41.60
2022-12-31T12:12:41.449Z,51.65
2022-12-31T12:15:11.527Z,48.92
2022-12-31T12:17:39.334Z,47.20
2022-12-31T12:20:29.428Z,46.92
2022-12-31T12:22:58.724Z,41.63
2022-12-31T12:25:36.088Z,47.53
2022-12-31T12:28:19.963Z,44.20
2022-12-31T12:30:54.820Z,49.67
2022-12-31T12:33:21.960Z,43.80
2022-12-31T12:35:48.932Z,43.67
2022-12-31T12:38:23.628Z,48.58
2022-12-31T12:40:59.676Z,43.53
2022-12-31T12:43:32.684Z,46.53
2022-12-31T12:46:02.532Z,45.83
2022-12-31T12:48:39.981Z,45.10
2022-12-31T12:51:31.236Z,49.55
2022-12-31T12:54:14.119Z,46.60
2022-12-31T12:56:52.159Z,47.38
2022-12-31T12:59:43.640Z,43.88
2022-12-31T13:02:19.972Z,44.20
2022-12-31T13:05:03.366Z,48.53
2022-12-31T13:07:53.518Z,45.75
2022-12-31T13:10:29.405Z,41.92
2022-12-31T13:13:24.551Z,46.72
2022-12-31T13:16:04.391Z,47.88
2022-12-31T13:18:50.144Z,44.70
2022-12-31T13:21:43.592Z,43.33
2022-12-31T13:24:39.617Z,44.65
2022-12-31T13:27:33.627Z,43.72
2022-12-31T13:30:03.423Z,45.05
2022-12-31T13:32:45.009Z,43.08
2022-12-31T13:35:33.698Z,43.05
2022-12-31T13:38:06.825Z,44.63
2022-12-31T13:40:52.584Z,39.15
2022-12-31T13:43:57.124Z,42.15
2022-12-31T13:46:42.812Z,43.08
2022-12-31T13:49:24.736Z,43.10
2022-12-31T13:52:01.348Z,44.83
2022-12-31T13:54:42.012Z,44.88
2022-12-31T13:57:36.547Z,42.95
2022-12-31T14:00:10.678Z,47.17
2022-12-31T14:02:48.015Z,47.42
2022-12-31T14:05:23.077Z,47.58
2022-12-31T14:07:59.498Z,42.75
2022-12-31T14:11:00.746Z,44.78
2022-12-31T14:13:40.207Z,49.20
2022-12-31T14:19:05.250Z,47.08
2022-12-31T14:21:53.573Z,45.50
2022-12-31T14:24:44.765Z,44.00
2022-12-31T14:27:21.043Z,45.85
2022-12-31T14:30:01.729Z,48.92
2022-12-31T14:32:55.147Z,47.30
2022-12-31T14:35:48.420Z,41.30
2022-12-31T14:38:42.192Z,45.00
2022-12-31T14:41:11.300Z,43.40
2022-12-31T14:43:46.299Z,44.10
2022-12-31T14:46:29.888Z,41.33
2022-12-31T14:49:00.505Z,41.10
2022-12-31T14:51:31.007Z,40.60
2022-12-31T14:53:58.879Z,41.45
2022-12-31T14:56:26.054Z,38.20
2022-12-31T14:59:01.501Z,52.22
2022-12-31T15:01:29.575Z,47.33
2022-12-31T15:03:58.215Z,43.33
2022-12-31T15:06:48.004Z,40.70
2022-12-31T15:09:40.833Z,47.10
2022-12-31T15:12:33.467Z,44.85
2022-12-31T15:15:25.230Z,47.40
2022-12-31T15:17:54.949Z,42.20
2022-12-31T15:20:24.762Z,47.20
2022-12-31T15:22:52.928Z,48.30
2022-12-31T15:25:25.555Z,50.45
2022-12-31T15:27:53.007Z,45.97
2022-12-31T15:30:44.438Z,43.30
2022-12-31T15:33:32.948Z,51.03
2022-12-31T15:36:18.143Z,45.55
2022-12-31T15:38:46.211Z,48.20
2022-12-31T15:41:16.960Z,50.83
2022-12-31T15:43:50.701Z,47.65
2022-12-31T15:46:22.754Z,49.92
2022-12-31T15:49:01.995Z,57.05
2022-12-31T15:51:45.383Z,48.10
2022-12-31T15:54:24.353Z,53.42
2022-12-31T15:56:54.545Z,50.97
2022-12-31T15:59:23.448Z,55.83
2022-12-31T16:01:50.700Z,46.35
2022-12-31T16:04:23.870Z,53.00
2022-12-31T16:06:52.411Z,49.30
2022-12-31T16:09:34.233Z,51.58
2022-12-31T16:12:03.806Z,57.60
2022-12-31T16:14:40.503Z,50.72
2022-12-31T16:17:21.801Z,72.18
2022-12-31T16:19:48.611Z,62.65
2022-12-31T16:22:39.802Z,56.72
2022-12-31T16:25:32.645Z,68.28
2022-12-31T16:27:55.773Z,56.17
2022-12-31T16:30:32.291Z,53.70
2022-12-31T16:33:02.462Z,58.90
2022-12-31T16:35:32.150Z,55.83
2022-12-31T16:38:03.736Z,59.55
2022-12-31T16:40:31.061Z,59.00
2022-12-31T16:42:58.072Z,59.45
2022-12-31T16:45:36.459Z,59.33
2022-12-31T16:48:17.349Z,62.03
2022-12-31T16:51:03.487Z,56.83
2022-12-31T16:53:34.595Z,64.95
2022-12-31T16:56:05.648Z,73.50
2022-12-31T16:58:36.397Z,61.00
2022-12-31T17:01:19.449Z,58.80
2022-12-31T17:03:52.053Z,70.68
2022-12-31T17:06:20.845Z,60.67
2022-12-31T17:09:15.731Z,54.10
2022-12-31T17:11:56.103Z,69.28
2022-12-31T17:14:26.927Z,65.65
2022-12-31T17:17:24.898Z,55.50
2022-12-31T17:19:57.837Z,59.92
2022-12-31T17:22:35.838Z,65.55
2022-12-31T17:25:25.733Z,49.17
2022-12-31T17:27:56.472Z,51.63
2022-12-31T17:30:38.042Z,49.65
2022-12-31T17:33:08.269Z,51.38
2022-12-31T17:35:37.662Z,50.65
2022-12-31T17:40:54.437Z,60.38
2022-12-31T17:43:23.806Z,65.97
2022-12-31T17:45:52.957Z,64.47
2022-12-31T17:48:23.117Z,66.03
2022-12-31T17:50:52.370Z,70.40
2022-12-31T17:53:19.840Z,61.92
2022-12-31T17:55:56.995Z,64.38
2022-12-31T17:58:38.455Z,60.20
2022-12-31T18:01:07.825Z,59.03
2022-12-31T18:03:35.187Z,55.85
2022-12-31T18:06:02.488Z,67.60
2022-12-31T18:08:29.473Z,63.97
2022-12-31T18:10:56.725Z,65.47
2022-12-31T18:13:25.629Z,61.97
2022-12-31T18:15:53.270Z,63.05
2022-12-31T18:18:28.894Z,61.80
2022-12-31T18:20:59.239Z,64.13
2022-12-31T18:23:35.505Z,67.50
2022-12-31T18:26:02.368Z,65.70
2022-12-31T18:28:49.233Z,61.10
2022-12-31T18:31:18.044Z,74.15
2022-12-31T18:33:46.937Z,75.13
2022-12-31T18:36:16.946Z,61.40
2022-12-31T18:38:44.053Z,61.85
2022-12-31T18:41:24.169Z,65.72
2022-12-31T18:43:51.255Z,91.97
2022-12-31T18:46:20.621Z,125.78
2022-12-31T18:48:48.189Z,113.85
2022-12-31T18:51:18.297Z,83.32
2022-12-31T18:53:45.753Z,85.65
2022-12-31T18:56:15.356Z,74.55
2022-12-31T18:58:43.333Z,69.78
2022-12-31T19:01:37.772Z,68.97
2022-12-31T19:04:11.213Z,67.43
2022-12-31T19:06:38.299Z,65.38
2022-12-31T19:09:13.288Z,57.50
2022-12-31T19:11:52.927Z,56.70
2022-12-31T19:14:24.157Z,58.05
2022-12-31T19:16:53.230Z,56.40
2022-12-31T19:19:21.045Z,56.28
2022-12-31T19:21:48.224Z,62.25
2022-12-31T19:24:16.794Z,66.25
2022-12-31T19:26:44.135Z,61.38
2022-12-31T19:29:17.799Z,61.92
2022-12-31T19:31:45.090Z,59.13
2022-12-31T19:34:12.296Z,64.53
2022-12-31T19:36:44.084Z,60.75
2022-12-31T19:39:20.556Z,67.47
2022-12-31T19:41:54.695Z,64.43
2022-12-31T19:44:26.581Z,65.53
2022-12-31T19:46:53.841Z,65.03
2022-12-31T19:49:20.825Z,64.82
2022-12-31T19:51:48.183Z,62.30
2022-12-31T19:54:15.154Z,75.55
2022-12-31T19:56:42.063Z,73.72
2022-12-31T19:59:10.931Z,68.43
2022-12-31T20:01:38.397Z,75.50
2022-12-31T20:04:05.620Z,71.55
2022-12-31T20:06:32.955Z,60.58
2022-12-31T20:09:00.131Z,73.07
2022-12-31T20:11:27.881Z,211.98
2022-12-31T20:13:55.041Z,136.32
2022-12-31T20:16:24.626Z,117.97
2022-12-31T20:18:52.266Z,129.20
2022-12-31T20:21:22.847Z,84.05
2022-12-31T20:23:51.287Z,86.90
2022-12-31T20:26:19.126Z,78.07
2022-12-31T20:28:46.794Z,82.75
2022-12-31T20:31:16.711Z,84.60
2022-12-31T20:33:44.608Z,98.82
2022-12-31T20:36:14.564Z,118.97
2022-12-31T20:38:41.598Z,131.45
2022-12-31T20:41:14.156Z,152.70
2022-12-31T20:43:41.620Z,155.73
2022-12-31T20:46:15.443Z,157.35
2022-12-31T20:48:44.356Z,159.05
2022-12-31T20:51:13.068Z,133.43
2022-12-31T20:53:45.052Z,134.88
2022-12-31T20:56:11.955Z,117.07
2022-12-31T20:58:38.888Z,125.75
2022-12-31T21:01:08.225Z,116.38
2022-12-31T21:06:28.765Z,121.93
2022-12-31T21:08:57.420Z,108.22
2022-12-31T21:11:43.524Z,108.47
2022-12-31T21:14:10.489Z,103.93
2022-12-31T21:16:37.550Z,97.55
2022-12-31T21:19:05.520Z,103.50
2022-12-31T21:21:32.785Z,95.78
2022-12-31T21:23:59.719Z,90.05
2022-12-31T21:26:26.885Z,87.38
2022-12-31T21:28:54.140Z,85.30
2022-12-31T21:31:21.314Z,90.90
2022-12-31T21:33:48.618Z,86.32
2022-12-31T21:36:16.281Z,96.88
2022-12-31T21:38:44.523Z,96.13
2022-12-31T21:41:34.151Z,104.55
2022-12-31T21:44:02.932Z,147.23
2022-12-31T21:46:30.179Z,123.78
2022-12-31T21:48:58.529Z,105.10
2022-12-31T21:51:26.046Z,106.70
2022-12-31T21:53:53.185Z,114.25
2022-12-31T21:56:21.373Z,105.50
2022-12-31T21:59:16.946Z,110.25
2022-12-31T22:02:03.188Z,104.50
2022-12-31T22:07:17.479Z,112.03
2022-12-31T22:09:44.550Z,134.75
2022-12-31T22:12:11.544Z,157.35
2022-12-31T22:14:38.457Z,166.32
2022-12-31T22:17:05.826Z,322.58
2022-12-31T22:19:43.524Z,204.32
2022-12-31T22:22:19.998Z,193.98
2022-12-31T22:24:46.915Z,179.07
2022-12-31T22:27:29.604Z,189.30
2022-12-31T22:29:56.702Z,180.18
2022-12-31T22:32:23.577Z,181.30
2022-12-31T22:34:50.422Z,176.15
2022-12-31T22:37:54.454Z,192.20
2022-12-31T22:40:04.845Z,183.57
2022-12-31T22:42:31.992Z,182.95
2022-12-31T22:44:58.874Z,178.57
2022-12-31T22:47:25.885Z,190.27
2022-12-31T22:49:52.807Z,188.95
2022-12-31T22:52:19.721Z,210.73
2022-12-31T22:54:46.680Z,212.02
2022-12-31T22:57:19.769Z,193.50
2022-12-31T22:59:47.275Z,209.38
2022-12-31T23:02:14.206Z,209.85
2022-12-31T23:04:41.401Z,220.60
2022-12-31T23:07:08.781Z,213.05
2022-12-31T23:09:54.261Z,213.10
2022-12-31T23:12:21.233Z,241.90
2022-12-31T23:15:06.680Z,240.20
2022-12-31T23:17:52.010Z,238.00
2022-12-31T23:20:41.047Z,275.85
2022-12-31T23:23:11.973Z,287.33
2022-12-31T23:25:44.158Z,262.27
2022-12-31T23:28:22.057Z,291.40
2022-12-31T23:30:54.085Z,293.25
2022-12-31T23:33:24.069Z,282.77
2022-12-31T23:36:01.088Z,306.67
2022-12-31T23:38:28.025Z,301.73
2022-12-31T23:40:54.851Z,310.15
2022-12-31T23:43:22.493Z,331.15
2022-12-31T23:45:51.254Z,330.65
2022-12-31T23:48:18.324Z,344.67
2022-12-31T23:50:50.807Z,347.13
2022-12-31T23:53:19.844Z,349.67
2022-12-31T23:55:46.691Z,349.63
2022-12-31T23:58:13.568Z,349.40
